Westfield, NC (27053)

3:16 PM EDT on July 01, 2015 (GMT -0400)
Lawsonville NC Hart Rd. | | Change Station
CLOSE
Current Station
Personal Weather Station
Location: Lawsonville, NC
Elevation: 1112 ft
Nearby Weather Stations

Elev 1112 ft 36.49 °N, 80.25 °W | Updated 1 minute ago

Partly Cloudy
Partly Cloudy
85.0 °F
Feels Like 88 °F
N
4.0
Wind Variable Wind from West
Gusts 11.0 mph

Today
High -- | Low -- °F
--% Chance of Precip.
Yesterday
High -- | Low -- °F
Precip. -- in
6:06 AM 8:43 PM
Full, 100% visible
Pressure 29.98 in
Visibility 7.0 miles
Clouds Scattered Clouds 6000 ft
Mostly Cloudy 7000 ft
Heat Index 88 °F
Dew Point 68 °F
Humidity 56%
Rainfall 0.00 in
Snow Depth Not available.
UV 6 out of 12
Pollen 3.60 out of 12
Air Quality Not available.
Flu Activity Not available.
METAR KMWK 011855Z AUTO 28004KT 7SM SCT060 BKN070 30/18 A2998 RMK AO2 T02950181

More Conditions Fewer Conditions

Pressure 29.98 in
Visibility 7.0 miles
Clouds Scattered Clouds 6000 ft
Mostly Cloudy 7000 ft
Heat Index 88 °F
Dew Point 68 °F
Humidity 56%
Rainfall 0.00 in
Snow Depth Not available.
UV 6 out of 12
Pollen 3.60 out of 12
Air Quality Not available.
Flu Activity Not available.
METAR KMWK 011855Z AUTO 28004KT 7SM SCT060 BKN070 30/18 A2998 RMK AO2 T02950181

More Conditions Fewer Conditions

10-Day Weather Forecast

×

Almanac

Astronomy

Jul. 01, 2015 Rise Set
Actual Time
Civil Twilight
Nautical Twilight
Astronomical Twilight
Moon
Length of Visible Light
Length of Day
Tomorrow will be .
, % of the Moon is Illuminated

Today's Extremes

State Highs State Lows

Community

WunderPhotos

Upload Photos

1,834,243 photos uploaded!

WunderBlogs® & News

Nearby

Air Quality

  Air Quality AQ Index Pollutant
Not available.

Snow Depth

Station Depth Elevation

Earthquake Activity

City Distance Mag. Time & Date
Minimum magnitude displayed is 2.5.

Coastal Water Temperatures

Place Temperature

Stations

Nearby Weather Stations

Station Location Temp. Windchill Dew Point Humidity Wind Precip. Elev Updated Type